Terminal Aerodrome Forecast
Issued by NWS Chicago, IL

Home | Current Version | Previous Version | Graphics & Text | Print | Product List | Glossary On
Versions: 1 2 3 4 5 6 7 8 9 10 11 12 13 14 15 16 17 18 19 20 21 22 23 24 25 26 27 28 29 30 31
203
FTUS43 KLOT 252107 AAB
TAFRFD
TAF AMD
KRFD 252107Z 2521/2618 23016G24KT P6SM VCTS BKN060CB
      TEMPO 2522/2523 4SM TSRA BKN040CB
     FM260030 25012KT P6SM BKN040
     FM260900 34008KT P6SM SCT040 SCT100
     FM261400 03011KT P6SM SCT005 BKN010=

USA.gov is the U.S. government's official web portal to all federal, state and local government web resources and services.